Plainview, TX (79072)

6:19 PM CST on February 21, 2017 (GMT -0600)
Oasis - 79072 | | Change Station
Active Advisory: Fire Weather Watch

Elev 3386 ft 34.19 °N, 101.77 °W | Updated 7 seconds ago

Clear
Clear
70.1 °F
Feels Like 74 °F
N
2.0
Wind Variable Wind from ESE

Today
High -- | Low -- °F
--% Chance of Precip.
Yesterday
High -- | Low -- °F
Precip. -- in
Pressure 30.02 in
Visibility 10.0 miles
Clouds Clear
Heat Index 74 °F
Dew Point 28 °F
Humidity 20%
Rainfall 0.00 in
Snow Depth Not available.
7:25 AM 6:36 PM
Waning Crescent, 21% visible
METAR KPVW 212355Z AUTO 24004KT 10SM CLR 22/M03 A3002 RMK AO2 T02181027 10234 20182
Pressure 30.02 in
Visibility 10.0 miles
Clouds Clear
Heat Index 74 °F
Dew Point 28 °F
Humidity 20%
Rainfall 0.00 in
Snow Depth Not available.
7:25 AM 6:36 PM
Waning Crescent, 21% visible
METAR KPVW 212355Z AUTO 24004KT 10SM CLR 22/M03 A3002 RMK AO2 T02181027 10234 20182

Get Your Daily Forecast Email!

Thanks for signing up!

Be on the lookout for a verification email in your inbox.

You'll start receiving the daily forecast at 8 AM.

×

10-Day Weather Forecast

Almanac

Astronomy

Feb. 21, 2017 Rise Set
Actual Time
Civil Twilight
Nautical Twilight
Astronomical Twilight
Moon
Length of Visible Light
Length of Day
Tomorrow will be .
, % of the Moon is Illuminated

Today's Extremes

State Highs State Lows

Community

WunderPhotos

Upload Photos

1,962,540 photos uploaded!

WunderBlog® & News

Nearby

Air Quality

  Air Quality AQ Index Pollutant
Not available.

Snow Depth

Station Depth Elevation

Earthquake Activity

City Distance Mag. Time & Date
Minimum magnitude displayed is 2.5.

Coastal Water Temperatures

Place Temperature

Stations

Nearby Weather Stations

Station Location Temp. Windchill Dew Point Humidity Wind Precip. Elev Updated Type
                   

Watches & Warnings

Fire Weather Watch
Issued: 3:52 PM CST Feb. 21, 2017 – National Weather Service

... Fire Weather Watch remains in effect from Thursday morning
through Thursday evening for the South Plains... rolling plains
and extreme southern Texas Panhandle for 20 foot winds of 20 mph
or more... relative humidities of 15 percent or less and a high
fire danger...

* wind... westerly winds at 30 to 35 mph.

* Humidity... between 5 and 10 percent.

* Fuels... dry.

* Impacts... any fires that develop can spread rapidly. Outdoor
burning is discouraged.

Precautionary/preparedness actions...

A Fire Weather Watch means that critical fire weather conditions
are forecast to occur. Monitor later forecasts and possible red
flag warnings.